ENMS/MJF METAR and TAF weather

Enter ICAO airport designator
Station Type Date Time Source
ENMS METAR 2020/06/02 18:50 UTC NOAA

ENMS 021850Z 34005KT 9999 FEW030 BKN057 12/08 Q1017 RMK WIND 412FT VRB02KT


Station Type Date Time Source
ENMS Decoded METAR 2020/06/02 18:50 UTC NOAA

Mosjoen Kjaerstad, Norway (ENMS) 65-48N 013-08E
Jun 02, 2020 - 02:50 PM EDT / 2020.06.02 1850 UTC
Wind: from the NNW (340 degrees) at 6 MPH (5 KT):0
Visibility: greater than 7 mile(s):0
Sky conditions: mostly cloudy
Temperature: 53 F (12 C)
Dew Point: 46 F (8 C)
Relative Humidity: 76%
Pressure (altimeter): 30.03 in. Hg (1017 hPa)
ob: ENMS 021850Z 34005KT 9999 FEW030 BKN057 12/08 Q1017 RMK WIND 412FT VRB02KT
cycle: 19

Station Type Date Time Source
ENMS TAF UTC NOAA

Error!

Example: see airport list